Time;durP1;ratioP1;P1;durP2;ratioP2;P2;SDS_P1;SDS_P2;PMS_P1;PMS_P2;Temp;Humidity;BMP_temperature;BMP_pressure;BME280_temperature;BME280_humidity;BME280_pressure;Samples;Min_cycle;Max_cycle;Signal;HPM_P1;HPM_P2
2024/02/01 00:01:30;;;;;;;;;;;;;;;8.65;68.90;99015.03;5027369;28;20465;-84
2024/02/01 00:04:19;;;;;;;;;;;;;;;8.62;68.90;99000.13;5028467;28;19925;-84
2024/02/01 00:07:07;;;;;;;;;;;;;;;8.69;68.53;99002.59;5028236;28;19933;-85
2024/02/01 00:09:55;;;;;;;;;;;;;;;8.62;68.76;99007.44;5024954;28;19925;-84
2024/02/01 00:12:43;;;;;;;;;;;;;;;8.66;68.54;99014.75;5025785;28;19929;-81
2024/02/01 00:15:32;;;;;;;;;;;;;;;8.64;68.96;99018.84;5025326;28;19929;-82
2024/02/01 00:18:20;;;;;;;;;;;;;;;8.55;69.57;99012.31;5031457;28;19932;-89
2024/02/01 00:21:09;;;;;;;;;;;;;;;8.65;69.13;99018.56;5013906;28;20495;-89
2024/02/01 00:23:57;;;;;;;;;;;;;;;8.68;68.49;99011.78;5011522;28;19933;-90
2024/02/01 00:26:45;;;;;;;;;;;;;;;8.68;68.67;99000.13;5030162;28;20006;-89
2024/02/01 00:29:33;;;;;;;;;;;;;;;8.60;69.29;98999.59;5027652;28;19929;-88
2024/02/01 00:32:21;;;;;;;;;;;;;;;8.72;68.54;98990.38;5012769;28;20433;-90
2024/02/01 00:35:10;;;;;;;;;;;;;;;8.64;68.21;98994.47;5029458;28;19925;-89
2024/02/01 00:37:59;;;;;;;;;;;;;;;8.66;67.66;98992.28;5029040;28;20003;-90
2024/02/01 00:40:47;;;;;;;;;;;;;;;8.70;67.18;98995.25;5010422;28;19929;-89
2024/02/01 00:43:35;;;;;;;;;;;;;;;8.76;66.66;98991.47;5029861;28;19952;-89
2024/02/01 00:46:23;;;;;;;;;;;;;;;8.81;65.62;98997.69;5013990;28;19967;-89
2024/02/01 00:49:12;;;;;;;;;;;;;;;8.79;64.49;98990.91;5027985;28;19925;-89
2024/02/01 00:52:00;;;;;;;;;;;;;;;8.83;64.43;98995.50;5028485;28;20018;-90
2024/02/01 00:54:49;;;;;;;;;;;;;;;8.81;64.11;98986.03;5029792;28;19929;-89
2024/02/01 00:57:37;;;;;;;;;;;;;;;8.85;64.33;98993.34;5011661;28;20028;-87
2024/02/01 01:00:26;;;;;;;;;;;;;;;8.88;63.82;98984.66;5051713;28;19968;-89
2024/02/01 01:03:14;;;;;;;;;;;;;;;8.93;64.20;98984.66;5009820;28;20067;-89
2024/02/01 01:06:04;;;;;;;;;;;;;;;8.93;63.77;98989.25;5016749;28;19972;-90
2024/02/01 01:08:52;;;;;;;;;;;;;;;8.84;62.66;98977.34;5018060;28;19929;-90
2024/02/01 01:11:41;;;;;;;;;;;;;;;8.89;62.90;98980.03;5027778;28;19925;-90
2024/02/01 01:14:29;;;;;;;;;;;;;;;8.85;62.81;98993.34;5011133;28;20006;-89
2024/02/01 01:17:17;;;;;;;;;;;;;;;8.79;62.50;98977.34;5020142;28;20027;-88
2024/02/01 01:20:06;;;;;;;;;;;;;;;8.81;62.76;98986.03;5017960;28;19974;-89
2024/02/01 01:22:54;;;;;;;;;;;;;;;8.82;62.68;98977.63;5019136;28;19976;-90
2024/02/01 01:25:42;;;;;;;;;;;;;;;8.82;62.56;98980.34;5018629;28;19933;-88
2024/02/01 01:28:31;;;;;;;;;;;;;;;8.84;62.46;98985.47;5027442;28;20483;-89
2024/02/01 01:31:22;;;;;;;;;;;;;;;8.78;62.29;98979.25;5016485;28;19936;-89
2024/02/01 01:34:10;;;;;;;;;;;;;;;8.78;62.34;98983.84;5027248;28;19933;-90
2024/02/01 01:37:00;;;;;;;;;;;;;;;8.74;62.22;98974.69;5030783;28;19951;-89
2024/02/01 01:39:48;;;;;;;;;;;;;;;8.74;61.98;98983.63;5028743;28;20283;-90
2024/02/01 01:42:36;;;;;;;;;;;;;;;8.75;61.74;98974.41;5014363;28;19932;-91
2024/02/01 01:45:25;;;;;;;;;;;;;;;8.71;61.34;98978.72;5007857;28;19933;-89
2024/02/01 01:48:13;;;;;;;;;;;;;;;8.72;61.17;98993.91;5017974;28;20048;-87
2024/02/01 01:51:02;;;;;;;;;;;;;;;8.73;61.13;98981.16;5034258;28;20402;-88
2024/02/01 01:53:50;;;;;;;;;;;;;;;8.69;60.88;98986.31;5031043;28;19978;-89
2024/02/01 01:56:38;;;;;;;;;;;;;;;8.65;61.33;98974.41;5032370;28;19925;-89
2024/02/01 01:59:26;;;;;;;;;;;;;;;8.66;60.87;98973.31;5018196;28;19925;-89
2024/02/01 02:02:15;;;;;;;;;;;;;;;8.64;60.60;98986.31;5031100;28;19933;-89
2024/02/01 02:05:04;;;;;;;;;;;;;;;8.61;60.50;98974.13;5034365;28;19933;-89
2024/02/01 02:07:52;;;;;;;;;;;;;;;8.61;60.81;98981.44;5028630;28;19925;-90
2024/02/01 02:10:40;;;;;;;;;;;;;;;8.62;60.64;98977.66;5020817;28;19925;-89
2024/02/01 02:13:28;;;;;;;;;;;;;;;8.60;60.47;98971.69;5018352;28;20269;-89
2024/02/01 02:16:17;;;;;;;;;;;;;;;8.60;59.96;98985.25;5027964;28;20004;-89
2024/02/01 02:19:09;;;;;;;;;;;;;;;8.55;59.90;98982.53;5034832;28;20286;-89
2024/02/01 02:21:58;;;;;;;;;;;;;;;8.52;60.03;98969.53;5012441;28;19932;-89
2024/02/01 02:24:47;;;;;;;;;;;;;;;8.54;59.56;98972.78;5027328;28;19925;-88
2024/02/01 02:27:35;;;;;;;;;;;;;;;8.55;59.80;98972.50;5013917;28;19929;-88
2024/02/01 02:30:24;;;;;;;;;;;;;;;8.54;59.17;98972.78;5031150;28;19925;-89
2024/02/01 02:33:12;;;;;;;;;;;;;;;8.51;59.27;98973.31;5016935;28;20424;-88
2024/02/01 02:36:00;;;;;;;;;;;;;;;8.49;58.86;98975.50;5032641;28;20336;-88
2024/02/01 02:38:50;;;;;;;;;;;;;;;8.46;58.88;98976.84;5031832;28;19932;-93
2024/02/01 02:41:38;;;;;;;;;;;;;;;8.46;59.13;98971.44;5012938;28;19932;-93
2024/02/01 02:44:27;;;;;;;;;;;;;;;8.39;59.27;98965.47;5025897;28;19925;-94
2024/02/01 02:47:15;;;;;;;;;;;;;;;8.43;59.48;98963.84;5031092;28;19929;-94
2024/02/01 02:50:05;;;;;;;;;;;;;;;8.45;59.51;98947.34;5017917;28;19932;-92
2024/02/01 02:52:54;;;;;;;;;;;;;;;8.36;59.51;98939.78;5029865;28;20010;-94
2024/02/01 02:55:44;;;;;;;;;;;;;;;8.41;59.51;98941.63;5023891;28;19976;-94
2024/02/01 02:58:32;;;;;;;;;;;;;;;8.46;59.76;98935.41;5016001;28;20292;-94
2024/02/01 03:04:34;;;;;;;;;;;;;;;8.36;60.14;98933.50;5030356;28;20018;-93
2024/02/01 03:07:47;;;;;;;;;;;;;;;8.43;60.19;98922.44;5024053;28;19926;-94
2024/02/01 03:10:36;;;;;;;;;;;;;;;8.35;60.12;98923.75;5016491;28;19936;-93
2024/02/01 03:13:25;;;;;;;;;;;;;;;8.32;60.37;98914.28;5019937;28;19936;-94
2024/02/01 03:16:17;;;;;;;;;;;;;;;8.32;60.67;98911.56;5039950;28;19940;-93
2024/02/01 03:19:05;;;;;;;;;;;;;;;8.32;60.76;98908.88;5034106;28;19929;-93
2024/02/01 03:21:55;;;;;;;;;;;;;;;8.26;60.80;98907.25;5032766;28;19929;-94
2024/02/01 03:24:45;;;;;;;;;;;;;;;8.23;61.27;98907.78;5029451;28;19932;-94
2024/02/01 03:27:33;;;;;;;;;;;;;;;8.16;61.40;98915.38;5025377;28;19933;-93
2024/02/01 03:30:23;;;;;;;;;;;;;;;8.19;61.22;98908.59;5029851;28;19925;-92
2024/02/01 03:33:11;;;;;;;;;;;;;;;8.18;61.56;98910.50;5030786;28;20415;-94
2024/02/01 03:35:59;;;;;;;;;;;;;;;8.18;61.49;98915.91;5027183;28;20456;-93
2024/02/01 03:38:47;;;;;;;;;;;;;;;8.18;61.80;98918.59;5031742;28;19929;-94
2024/02/01 03:41:35;;;;;;;;;;;;;;;8.18;61.90;98924.03;5015653;28;19925;-93
2024/02/01 03:44:24;;;;;;;;;;;;;;;8.27;61.58;98924.31;5028108;28;20576;-93
2024/02/01 03:47:13;;;;;;;;;;;;;;;8.28;61.67;98925.91;5030786;28;19925;-75
2024/02/01 03:50:02;;;;;;;;;;;;;;;8.30;61.69;98919.13;4958472;28;1913558;-75
2024/02/01 03:52:50;;;;;;;;;;;;;;;8.22;62.22;98930.53;5028175;28;19932;-76
2024/02/01 03:55:38;;;;;;;;;;;;;;;8.28;62.00;98915.91;5028237;28;20292;-75
2024/02/01 03:58:27;;;;;;;;;;;;;;;8.25;62.31;98915.63;5020848;28;20388;-75
2024/02/01 04:01:15;;;;;;;;;;;;;;;8.28;62.55;98913.19;5028405;28;19978;-75
2024/02/01 04:04:06;;;;;;;;;;;;;;;8.36;62.32;98914.56;5015569;28;20556;-76
2024/02/01 04:06:54;;;;;;;;;;;;;;;8.31;62.44;98903.69;5024935;28;19978;-76
2024/02/01 04:09:42;;;;;;;;;;;;;;;8.29;62.46;98906.69;5013098;28;20023;-76
2024/02/01 04:12:32;;;;;;;;;;;;;;;8.34;62.53;98912.09;5015551;28;19925;-75
2024/02/01 04:15:20;;;;;;;;;;;;;;;8.32;62.82;98911.56;5026381;28;20019;-75
2024/02/01 04:18:08;;;;;;;;;;;;;;;8.31;62.77;98909.13;5026635;28;19980;-75
2024/02/01 04:20:58;;;;;;;;;;;;;;;8.25;62.99;98902.09;5012026;28;19932;-76
2024/02/01 04:23:46;;;;;;;;;;;;;;;8.26;63.06;98906.44;5028196;28;19925;-76
2024/02/01 04:26:35;;;;;;;;;;;;;;;8.34;62.95;98914.81;5023496;28;19932;-76
2024/02/01 04:29:23;;;;;;;;;;;;;;;8.34;63.13;98908.59;5023824;28;19925;-75
2024/02/01 04:32:11;;;;;;;;;;;;;;;8.32;62.94;98908.88;5022135;28;19925;-76
2024/02/01 04:35:03;;;;;;;;;;;;;;;8.29;62.93;98909.41;5007043;28;19925;-75
2024/02/01 04:37:53;;;;;;;;;;;;;;;8.34;62.99;98920.22;5020695;28;19929;-76
2024/02/01 04:40:43;;;;;;;;;;;;;;;8.34;62.83;98920.22;5007625;28;20364;-76
2024/02/01 04:43:31;;;;;;;;;;;;;;;8.31;62.96;98915.38;5025787;28;20296;-76
2024/02/01 04:46:20;;;;;;;;;;;;;;;8.33;63.21;98913.19;5024876;28;19925;-74
2024/02/01 04:49:12;;;;;;;;;;;;;;;8.29;63.01;98903.97;5028543;28;20648;-75
2024/02/01 04:52:01;;;;;;;;;;;;;;;8.26;63.49;98909.16;5018679;28;19932;-75
2024/02/01 04:54:50;;;;;;;;;;;;;;;8.29;63.28;98912.09;5026752;28;20014;-75
2024/02/01 04:57:40;;;;;;;;;;;;;;;8.33;63.36;98907.78;5028309;28;19972;-89
2024/02/01 05:00:29;;;;;;;;;;;;;;;8.24;63.77;98903.97;5027599;28;19929;-89
2024/02/01 05:03:18;;;;;;;;;;;;;;;8.25;64.68;98910.22;5031261;28;20031;-89
2024/02/01 05:06:07;;;;;;;;;;;;;;;8.25;65.47;98911.00;5019956;28;20292;-89
2024/02/01 05:08:57;;;;;;;;;;;;;;;8.25;65.83;98916.44;5027883;28;19932;-90
2024/02/01 05:11:46;;;;;;;;;;;;;;;8.37;65.49;98922.44;5011833;28;20296;-90
2024/02/01 05:14:36;;;;;;;;;;;;;;;8.22;66.26;98919.69;5032441;28;19925;-90
2024/02/01 05:17:26;;;;;;;;;;;;;;;8.36;66.03;98925.38;5026581;28;20300;-89
2024/02/01 05:20:15;;;;;;;;;;;;;;;8.40;66.20;98919.16;5033616;28;19925;-90
2024/02/01 05:23:03;;;;;;;;;;;;;;;8.36;67.14;98920.81;5033626;28;19925;-90
2024/02/01 05:25:51;;;;;;;;;;;;;;;8.46;67.03;98922.69;5010751;28;19933;-90
2024/02/01 05:28:42;;;;;;;;;;;;;;;8.57;67.23;98920.78;5017675;28;20301;-90
2024/02/01 05:31:30;;;;;;;;;;;;;;;8.50;68.70;98923.75;5035145;28;20009;-90
2024/02/01 05:34:18;;;;;;;;;;;;;;;8.49;68.30;98922.16;5048998;28;19926;-89
2024/02/01 05:37:08;;;;;;;;;;;;;;;8.58;68.57;98919.72;5038411;28;20287;-90
2024/02/01 05:39:56;;;;;;;;;;;;;;;8.59;69.17;98918.63;5035076;28;20010;-90
2024/02/01 05:42:45;;;;;;;;;;;;;;;8.54;69.33;98929.47;5027349;28;19933;-90
2024/02/01 05:45:34;;;;;;;;;;;;;;;8.48;69.60;98919.72;5029976;28;20380;-90
2024/02/01 05:48:24;;;;;;;;;;;;;;;8.45;70.37;98928.38;5021935;28;19925;-85
2024/02/01 05:51:12;;;;;;;;;;;;;;;8.37;70.60;98924.34;5021465;28;19972;-89
2024/02/01 05:54:00;;;;;;;;;;;;;;;8.43;70.84;98925.13;5026625;28;19925;-89
2024/02/01 05:56:48;;;;;;;;;;;;;;;8.47;71.13;98928.91;5026332;28;19930;-93
2024/02/01 05:59:39;;;;;;;;;;;;;;;8.52;70.91;98928.91;5019747;28;20044;-82
2024/02/01 06:02:29;;;;;;;;;;;;;;;8.55;70.84;98928.38;5030468;28;19931;-92
2024/02/01 06:05:18;;;;;;;;;;;;;;;8.50;71.03;98928.38;5028663;28;20450;-94
2024/02/01 06:08:07;;;;;;;;;;;;;;;8.43;71.53;98923.25;5033354;28;19925;-94
2024/02/01 06:10:55;;;;;;;;;;;;;;;8.40;72.01;98931.91;5023199;28;19932;-93
2024/02/01 06:13:44;;;;;;;;;;;;;;;8.20;73.06;98929.97;5013910;28;19932;-93
2024/02/01 06:16:32;;;;;;;;;;;;;;;8.23;72.56;98929.44;5034434;28;19929;-89
2024/02/01 06:19:23;;;;;;;;;;;;;;;8.24;72.72;98925.63;5023193;28;19925;-90
2024/02/01 06:22:12;;;;;;;;;;;;;;;8.12;73.18;98935.94;5018792;28;19925;-94
2024/02/01 06:25:03;;;;;;;;;;;;;;;8.20;73.31;98935.38;5028994;28;19933;-92
2024/02/01 06:27:51;;;;;;;;;;;;;;;8.13;73.48;98941.06;5005256;28;20359;-93
2024/02/01 06:30:39;;;;;;;;;;;;;;;8.27;73.51;98944.06;5012025;28;19925;-89
2024/02/01 06:33:29;;;;;;;;;;;;;;;8.11;74.76;98939.72;5027138;28;19936;-87
2024/02/01 06:36:19;;;;;;;;;;;;;;;8.47;73.18;98940.56;5011168;28;19925;-94
2024/02/01 06:39:13;;;;;;;;;;;;;;;8.48;72.80;98946.81;5016551;28;19925;-92
2024/02/01 06:42:14;;;;;;;;;;;;;;;8.31;73.68;98945.16;5028961;28;20314;-89
2024/02/01 06:45:24;;;;;;;;;;;;;;;8.25;73.81;98943.50;5031621;28;19931;-90
2024/02/01 06:48:12;;;;;;;;;;;;;;;8.29;74.06;98941.88;5025535;28;20008;-89
2024/02/01 06:51:10;;;;;;;;;;;;;;;8.36;73.93;98941.63;5006453;28;19956;-88
2024/02/01 06:54:05;;;;;;;;;;;;;;;8.26;74.20;98945.16;5014543;28;19925;-89
2024/02/01 06:57:02;;;;;;;;;;;;;;;8.30;74.14;98940.78;5022633;28;20019;-89
2024/02/01 07:00:16;;;;;;;;;;;;;;;8.04;74.72;98937.28;5032238;28;19936;-88
2024/02/01 07:03:04;;;;;;;;;;;;;;;8.18;74.71;98934.84;5028604;28;20000;-89
2024/02/01 07:06:06;;;;;;;;;;;;;;;8.12;74.96;98939.44;5010552;28;20280;-88
2024/02/01 07:08:56;;;;;;;;;;;;;;;8.07;75.36;98941.34;5023753;28;20010;-89
2024/02/01 07:11:59;;;;;;;;;;;;;;;8.18;75.27;98942.16;5019886;28;19925;-86
2024/02/01 07:15:09;;;;;;;;;;;;;;;8.17;75.37;98944.06;5015259;28;20571;-87
2024/02/01 07:17:59;;;;;;;;;;;;;;;8.05;75.21;98944.31;5029392;28;19944;-74
2024/02/01 07:20:50;;;;;;;;;;;;;;;8.04;76.12;98949.97;5027659;28;20035;-75
2024/02/01 07:23:48;;;;;;;;;;;;;;;8.11;75.24;98950.56;5015519;28;20389;-73
2024/02/01 07:26:43;;;;;;;;;;;;;;;7.99;76.01;98950.81;5023939;28;19925;-75
2024/02/01 07:57:51;;;;;;;;;;;;;;;7.93;77.63;98989.75;5016522;28;19929;-76
2024/02/01 08:00:46;;;;;;;;;;;;;;;7.92;77.95;98985.41;5015675;28;20010;-75
2024/02/01 08:03:55;;;;;;;;;;;;;;;7.86;77.81;98990.00;5020054;28;20292;-74
2024/02/01 08:09:48;;;;;;;;;;;;;;;8.02;77.72;98987.34;5029959;28;20023;-74
2024/02/01 08:12:37;;;;;;;;;;;;;;;7.85;78.74;98999.22;5025275;28;20007;-75
2024/02/01 08:15:26;;;;;;;;;;;;;;;8.08;78.36;98986.25;5015043;28;19987;-74
2024/02/01 08:18:15;;;;;;;;;;;;;;;8.06;78.33;98988.44;5022520;28;19959;-75
2024/02/01 08:21:04;;;;;;;;;;;;;;;8.11;78.16;98993.84;5025390;28;19933;-73
2024/02/01 08:23:54;;;;;;;;;;;;;;;8.17;77.63;99000.91;5014428;28;19929;-74
2024/02/01 08:26:43;;;;;;;;;;;;;;;8.11;77.61;99000.09;5026450;28;19961;-75
2024/02/01 08:29:35;;;;;;;;;;;;;;;8.11;77.87;99001.97;5030281;28;19925;-74
2024/02/01 08:32:24;;;;;;;;;;;;;;;8.01;78.51;99010.06;5014350;28;19935;-75
2024/02/01 08:35:14;;;;;;;;;;;;;;;8.09;78.25;99009.53;5027275;28;19940;-74
2024/02/01 08:38:02;;;;;;;;;;;;;;;8.00;78.56;99011.97;5009867;28;19925;-75
2024/02/01 08:40:50;;;;;;;;;;;;;;;8.07;78.98;99025.25;5026559;28;19929;-75
2024/02/01 08:43:40;;;;;;;;;;;;;;;8.02;78.69;99022.53;5029901;28;19925;-75
2024/02/01 08:46:28;;;;;;;;;;;;;;;7.95;79.27;99021.97;5030591;28;19926;-75
2024/02/01 08:49:16;;;;;;;;;;;;;;;8.11;78.79;99020.94;5025344;28;19925;-75
2024/02/01 08:52:06;;;;;;;;;;;;;;;7.95;79.49;99020.06;5029914;28;19927;-74
2024/02/01 08:54:54;;;;;;;;;;;;;;;8.14;78.94;99004.13;5011613;28;20019;-74
2024/02/01 08:57:43;;;;;;;;;;;;;;;8.16;79.19;99006.59;5014315;28;20065;-83
2024/02/01 09:00:32;;;;;;;;;;;;;;;8.12;78.76;99017.13;5004169;28;19984;-89
2024/02/01 09:03:29;;;;;;;;;;;;;;;8.16;78.62;99020.94;5023792;28;20316;-76
2024/02/01 09:06:18;;;;;;;;;;;;;;;8.01;79.70;99018.19;5009530;28;20339;-76
2024/02/01 09:09:28;;;;;;;;;;;;;;;8.13;79.57;99016.84;5025857;28;19926;-75
2024/02/01 09:12:17;;;;;;;;;;;;;;;8.13;79.39;99029.59;5020595;28;20432;-91
2024/02/01 09:15:07;;;;;;;;;;;;;;;8.16;79.70;99031.75;5004636;28;20459;-75
2024/02/01 09:17:56;;;;;;;;;;;;;;;8.17;79.63;99038.81;5028081;28;19929;-77
2024/02/01 09:20:44;;;;;;;;;;;;;;;8.14;80.04;99036.63;5023863;28;20398;-77
2024/02/01 09:23:32;;;;;;;;;;;;;;;8.31;79.16;99042.63;5028436;28;20406;-76
2024/02/01 09:26:22;;;;;;;;;;;;;;;8.18;79.42;99050.44;5013669;28;19936;-75
2024/02/01 09:29:12;;;;;;;;;;;;;;;8.28;79.29;99047.75;5012479;28;20040;-75
2024/02/01 09:32:00;;;;;;;;;;;;;;;8.30;79.43;99032.03;5002654;28;19995;-75
2024/02/01 09:34:48;;;;;;;;;;;;;;;8.46;79.57;99041.03;5030099;28;20317;-76
2024/02/01 09:37:36;;;;;;;;;;;;;;;8.40;78.97;99046.44;5015422;28;19925;-75
2024/02/01 09:40:26;;;;;;;;;;;;;;;8.39;79.37;99041.28;5013597;28;19936;-76
2024/02/01 09:43:20;;;;;;;;;;;;;;;8.14;80.10;99039.31;5009739;28;19925;-75
2024/02/01 09:46:08;;;;;;;;;;;;;;;8.37;79.75;99044.28;5010588;28;20272;-76
2024/02/01 09:48:57;;;;;;;;;;;;;;;8.24;80.27;99047.47;5019156;28;20012;-90
2024/02/01 09:51:46;;;;;;;;;;;;;;;8.18;79.88;99040.41;5033027;28;19925;-90
2024/02/01 09:54:35;;;;;;;;;;;;;;;8.28;80.05;99043.16;5032861;28;20391;-92
2024/02/01 09:57:23;;;;;;;;;;;;;;;8.24;80.24;99041.25;5033872;28;19937;-91
2024/02/01 10:00:14;;;;;;;;;;;;;;;8.28;79.48;99055.88;5036024;28;20399;-91
2024/02/01 10:03:03;;;;;;;;;;;;;;;8.34;79.72;99060.22;5036457;28;19929;-90
2024/02/01 10:05:51;;;;;;;;;;;;;;;8.36;79.66;99056.19;5033411;28;19947;-89
2024/02/01 10:08:40;;;;;;;;;;;;;;;8.42;79.33;99045.38;5025633;28;19947;-90
2024/02/01 10:11:29;;;;;;;;;;;;;;;8.38;79.22;99064.84;5030412;28;19933;-90
2024/02/01 10:14:17;;;;;;;;;;;;;;;8.28;80.29;99050.47;5018621;28;19929;-91
2024/02/01 10:17:07;;;;;;;;;;;;;;;8.44;79.76;99051.31;5030387;28;19952;-90
2024/02/01 10:19:55;;;;;;;;;;;;;;;8.50;79.37;99052.94;5031249;28;20380;-91
2024/02/01 10:22:43;;;;;;;;;;;;;;;8.44;79.78;99054.03;5026254;28;20408;-90
2024/02/01 10:25:39;;;;;;;;;;;;;;;8.46;80.03;99052.66;5029223;28;19929;-91
2024/02/01 10:28:34;;;;;;;;;;;;;;;8.40;80.15;99049.13;5033339;28;19925;-92
2024/02/01 10:31:23;;;;;;;;;;;;;;;8.53;79.67;99053.25;5012626;28;19929;-91
2024/02/01 10:34:13;;;;;;;;;;;;;;;8.38;80.10;99045.91;5016731;28;19925;-91
2024/02/01 10:37:02;;;;;;;;;;;;;;;8.29;80.81;99046.66;5030878;28;19925;-90
2024/02/01 10:39:54;;;;;;;;;;;;;;;8.25;80.53;99050.97;5036597;28;19931;-90
2024/02/01 10:42:45;;;;;;;;;;;;;;;8.21;80.98;99045.31;5018129;28;20020;-91
2024/02/01 10:45:36;;;;;;;;;;;;;;;8.25;81.02;99043.66;5018612;28;19929;-90
2024/02/01 10:48:25;;;;;;;;;;;;;;;8.31;80.80;99033.66;5033244;28;19931;-90
2024/02/01 10:51:15;;;;;;;;;;;;;;;8.35;80.85;99035.56;5017555;28;19932;-90
2024/02/01 10:54:05;;;;;;;;;;;;;;;8.50;80.63;99031.28;5027381;28;20300;-90
2024/02/01 10:56:55;;;;;;;;;;;;;;;8.34;80.20;99027.72;5009967;28;20016;-90
2024/02/01 10:59:44;;;;;;;;;;;;;;;8.49;80.73;99016.13;5012669;28;20337;-91
2024/02/01 11:02:32;;;;;;;;;;;;;;;8.49;80.11;99022.34;5027491;28;20365;-90
2024/02/01 11:05:21;;;;;;;;;;;;;;;8.57;80.18;99010.16;5018102;28;19937;-91
2024/02/01 11:08:17;;;;;;;;;;;;;;;8.61;79.68;98995.78;5026303;28;19925;-90
2024/02/01 11:11:16;;;;;;;;;;;;;;;8.75;80.17;98996.06;5011725;28;20611;-90
2024/02/01 11:14:07;;;;;;;;;;;;;;;8.91;78.75;99002.28;5032459;28;20020;-90
2024/02/01 11:16:56;;;;;;;;;;;;;;;8.90;78.38;98998.75;5010856;28;19929;-90
2024/02/01 11:19:47;;;;;;;;;;;;;;;8.92;79.08;98999.28;5029363;28;20428;-91
2024/02/01 11:22:39;;;;;;;;;;;;;;;9.01;78.28;99004.16;5028759;28;19933;-89
2024/02/01 11:25:29;;;;;;;;;;;;;;;8.99;78.66;99006.31;5012538;28;19925;-90
2024/02/01 11:28:24;;;;;;;;;;;;;;;9.14;77.88;98992.75;5015722;28;19967;-92
2024/02/01 11:31:15;;;;;;;;;;;;;;;9.12;77.42;99001.16;5008628;28;20521;-90
2024/02/01 11:34:07;;;;;;;;;;;;;;;9.16;77.36;99004.09;5016306;28;19964;-89
2024/02/01 11:36:55;;;;;;;;;;;;;;;9.07;77.35;99014.72;5027818;28;19937;-89
2024/02/01 11:39:44;;;;;;;;;;;;;;;9.06;76.62;99012.28;5015872;28;19925;-90
2024/02/01 11:42:34;;;;;;;;;;;;;;;9.01;77.13;99006.88;5012962;28;19964;-91
2024/02/01 11:45:22;;;;;;;;;;;;;;;8.81;77.34;99013.94;5015094;28;20392;-90
2024/02/01 11:48:15;;;;;;;;;;;;;;;8.96;77.16;99006.88;5016852;28;19932;-91
2024/02/01 11:51:04;;;;;;;;;;;;;;;9.03;77.20;99010.94;5010329;28;19926;-90
2024/02/01 11:53:52;;;;;;;;;;;;;;;8.91;77.12;99022.06;5016409;28;20380;-89
2024/02/01 11:56:43;;;;;;;;;;;;;;;8.90;77.30;99015.03;5028685;28;19969;-90
2024/02/01 11:59:36;;;;;;;;;;;;;;;8.81;77.13;99021.25;5029878;28;19991;-90
2024/02/01 12:02:24;;;;;;;;;;;;;;;8.83;77.52;99019.88;5033132;28;20384;-91
2024/02/01 12:05:12;;;;;;;;;;;;;;;8.74;77.08;99021.53;5005646;28;19925;-90
2024/02/01 12:08:03;;;;;;;;;;;;;;;8.85;76.83;99031.28;5010702;28;19932;-91
2024/02/01 12:10:51;;;;;;;;;;;;;;;8.85;76.40;99028.56;5024228;28;20043;-90
2024/02/01 12:13:46;;;;;;;;;;;;;;;8.81;76.34;99024.78;5016417;28;19963;-90
2024/02/01 12:16:37;;;;;;;;;;;;;;;8.89;76.19;99013.41;5032809;28;20300;-91
2024/02/01 12:19:26;;;;;;;;;;;;;;;8.91;76.54;99027.47;5048516;28;20298;-91
2024/02/01 12:22:16;;;;;;;;;;;;;;;8.98;76.63;99020.97;5017935;28;19929;-91
2024/02/01 12:25:05;;;;;;;;;;;;;;;8.97;76.28;99030.19;5030856;28;20288;-91
2024/02/01 12:27:53;;;;;;;;;;;;;;;8.99;76.37;99028.00;5030105;28;20376;-91
2024/02/01 12:30:44;;;;;;;;;;;;;;;9.00;76.89;99026.91;5025719;28;19929;-91
2024/02/01 12:33:39;;;;;;;;;;;;;;;8.86;76.66;99029.38;5016624;28;19925;-91
2024/02/01 12:36:28;;;;;;;;;;;;;;;8.85;75.50;99034.00;5016807;28;19962;-90
2024/02/01 12:39:17;;;;;;;;;;;;;;;8.86;75.64;99038.31;5009599;28;19944;-90
2024/02/01 12:42:05;;;;;;;;;;;;;;;8.72;75.86;99048.06;5014025;28;19925;-90
2024/02/01 12:44:53;;;;;;;;;;;;;;;8.68;75.72;99038.06;5015635;28;19925;-91
2024/02/01 12:47:47;;;;;;;;;;;;;;;8.83;75.12;99044.28;5027193;28;19932;-90
2024/02/01 12:50:39;;;;;;;;;;;;;;;8.67;75.44;99042.66;5007059;28;19932;-90
2024/02/01 12:53:28;;;;;;;;;;;;;;;8.79;75.49;99050.50;5013393;28;19929;-90
2024/02/01 12:56:20;;;;;;;;;;;;;;;8.80;75.17;99047.56;5030319;28;19925;-90
2024/02/01 12:59:09;;;;;;;;;;;;;;;8.79;75.34;99055.94;5030358;28;20012;-90
2024/02/01 13:01:58;;;;;;;;;;;;;;;8.87;74.70;99048.06;5016018;28;19925;-90
2024/02/01 13:04:46;;;;;;;;;;;;;;;8.76;75.52;99057.28;5009988;28;19943;-90
2024/02/01 13:07:36;;;;;;;;;;;;;;;8.83;75.07;99049.69;5018090;28;19925;-89
2024/02/01 13:10:24;;;;;;;;;;;;;;;8.94;74.66;99045.09;5008839;28;20419;-90
2024/02/01 13:13:12;;;;;;;;;;;;;;;8.96;74.57;99048.34;5015664;28;20019;-90
2024/02/01 13:16:04;;;;;;;;;;;;;;;8.81;74.79;99060.00;5014196;28;19975;-89
2024/02/01 13:18:54;;;;;;;;;;;;;;;8.96;74.67;99061.91;5030778;28;20051;-90
2024/02/01 13:21:42;;;;;;;;;;;;;;;9.04;73.83;99058.63;5034672;28;19935;-89
2024/02/01 13:24:32;;;;;;;;;;;;;;;9.09;73.47;99068.66;5036236;28;20020;-89
2024/02/01 13:27:20;;;;;;;;;;;;;;;9.09;74.50;99072.19;5033175;28;20388;-90
2024/02/01 13:30:09;;;;;;;;;;;;;;;9.01;73.70;99066.50;5020263;28;20391;-89
2024/02/01 13:32:58;;;;;;;;;;;;;;;8.89;74.72;99066.75;5031974;28;20018;-89
2024/02/01 13:35:47;;;;;;;;;;;;;;;8.95;73.28;99079.25;5025832;28;19964;-89
2024/02/01 13:38:35;;;;;;;;;;;;;;;8.99;73.28;99074.09;5034865;28;19963;-89
2024/02/01 13:41:24;;;;;;;;;;;;;;;9.01;73.26;99069.22;5012247;28;20016;-88
2024/02/01 13:44:15;;;;;;;;;;;;;;;9.04;72.50;99072.19;5027630;28;19928;-89
2024/02/01 13:47:05;;;;;;;;;;;;;;;8.90;72.52;99073.84;5026139;28;19932;-88
2024/02/01 13:49:54;;;;;;;;;;;;;;;9.03;71.41;99067.03;5017764;28;20364;-89
2024/02/01 13:52:42;;;;;;;;;;;;;;;9.02;71.38;99065.41;5032905;28;19925;-89
2024/02/01 13:55:31;;;;;;;;;;;;;;;9.06;71.13;99052.94;5034708;28;20064;-89
2024/02/01 13:58:20;;;;;;;;;;;;;;;9.02;70.78;99060.81;5013601;28;20291;-90
2024/02/01 14:01:09;;;;;;;;;;;;;;;9.14;70.53;99049.66;5019697;28;19937;-90
2024/02/01 14:03:57;;;;;;;;;;;;;;;9.08;69.88;99053.47;5025974;28;19926;-89
2024/02/01 14:06:45;;;;;;;;;;;;;;;9.15;69.22;99054.00;5014296;28;19925;-88
2024/02/01 14:09:33;;;;;;;;;;;;;;;9.02;68.27;99057.28;5032007;28;19932;-90
2024/02/01 14:12:22;;;;;;;;;;;;;;;9.03;68.76;99051.59;5034695;28;19925;-89
2024/02/01 14:15:15;;;;;;;;;;;;;;;9.10;68.00;99051.31;5013403;28;19933;-89
2024/02/01 14:18:04;;;;;;;;;;;;;;;9.17;68.05;99051.84;5019448;28;19925;-88
2024/02/01 14:20:52;;;;;;;;;;;;;;;9.18;68.43;99053.47;5027104;28;19925;-88
2024/02/01 14:23:40;;;;;;;;;;;;;;;9.19;68.26;99055.09;5014995;28;19925;-89
2024/02/01 14:26:29;;;;;;;;;;;;;;;9.19;68.41;99055.09;5017909;28;19925;-87
2024/02/01 14:29:17;;;;;;;;;;;;;;;9.24;68.77;99057.78;5035070;28;19925;-88
2024/02/01 14:32:07;;;;;;;;;;;;;;;9.29;68.02;99065.91;5031265;28;19925;-89
2024/02/01 14:34:55;;;;;;;;;;;;;;;9.29;67.58;99070.53;5026906;28;20028;-89
2024/02/01 14:37:43;;;;;;;;;;;;;;;9.39;67.22;99082.16;5014948;28;19936;-87
2024/02/01 14:40:31;;;;;;;;;;;;;;;9.30;66.81;99069.44;5030133;28;20012;-87
2024/02/01 14:43:21;;;;;;;;;;;;;;;9.17;67.46;99077.06;5033765;28;20343;-88
2024/02/01 14:46:09;;;;;;;;;;;;;;;9.25;66.71;99081.09;5026169;28;19976;-89
2024/02/01 14:48:59;;;;;;;;;;;;;;;9.28;67.09;99080.56;5018891;28;19933;-89
2024/02/01 14:51:47;;;;;;;;;;;;;;;9.27;66.73;99084.38;5034218;28;19925;-90
2024/02/01 14:54:36;;;;;;;;;;;;;;;9.25;66.41;99086.53;5013118;28;20011;-88
2024/02/01 14:57:25;;;;;;;;;;;;;;;9.18;66.01;99088.72;5012490;28;20281;-88
2024/02/01 15:00:14;;;;;;;;;;;;;;;9.33;65.61;99094.13;5018458;28;19925;-88
2024/02/01 15:03:03;;;;;;;;;;;;;;;9.35;65.27;99083.00;5031829;28;20063;-89
2024/02/01 15:05:52;;;;;;;;;;;;;;;9.23;64.93;99093.31;5023547;28;19925;-89
2024/02/01 15:08:41;;;;;;;;;;;;;;;9.18;65.30;99089.53;5031884;28;19925;-89
2024/02/01 15:11:30;;;;;;;;;;;;;;;9.28;65.29;99096.03;5025399;28;19936;-88
2024/02/01 15:14:18;;;;;;;;;;;;;;;9.29;65.45;99095.75;5032776;28;19926;-88
2024/02/01 15:17:06;;;;;;;;;;;;;;;9.25;65.12;99099.28;5007828;28;19925;-88
2024/02/01 15:19:54;;;;;;;;;;;;;;;9.21;65.37;99100.91;5017541;28;19925;-88
2024/02/01 15:22:46;;;;;;;;;;;;;;;9.31;65.55;99101.69;5032013;28;19932;-89
2024/02/01 15:25:39;;;;;;;;;;;;;;;9.18;65.65;99102.28;5029150;28;19929;-88
2024/02/01 15:28:28;;;;;;;;;;;;;;;9.15;65.59;99106.31;5011759;28;20400;-89
2024/02/01 15:31:22;;;;;;;;;;;;;;;9.22;65.88;99111.50;5005269;28;19929;-86